sensor_id;sensor_type;location;lat;lon;timestamp;temperature;humidity
41344;DHT22;27089;50.022;7.604;2022-11-15T00:02:14;10.70;99.90
41344;DHT22;27089;50.022;7.604;2022-11-15T00:04:40;10.70;99.90
41344;DHT22;27089;50.022;7.604;2022-11-15T00:07:07;10.70;99.90
41344;DHT22;27089;50.022;7.604;2022-11-15T00:09:34;10.70;99.90
41344;DHT22;27089;50.022;7.604;2022-11-15T00:12:01;10.70;99.90
41344;DHT22;27089;50.022;7.604;2022-11-15T00:14:28;10.70;99.90
41344;DHT22;27089;50.022;7.604;2022-11-15T00:16:56;10.70;99.90
41344;DHT22;27089;50.022;7.604;2022-11-15T00:19:23;10.70;99.90
41344;DHT22;27089;50.022;7.604;2022-11-15T00:21:50;10.60;99.90
41344;DHT22;27089;50.022;7.604;2022-11-15T00:24:17;10.60;99.90
41344;DHT22;27089;50.022;7.604;2022-11-15T00:26:45;10.60;99.90
41344;DHT22;27089;50.022;7.604;2022-11-15T00:29:12;10.60;99.90
41344;DHT22;27089;50.022;7.604;2022-11-15T00:31:39;10.50;99.90
41344;DHT22;27089;50.022;7.604;2022-11-15T00:34:09;10.40;99.90
41344;DHT22;27089;50.022;7.604;2022-11-15T00:36:36;10.40;99.90
41344;DHT22;27089;50.022;7.604;2022-11-15T00:39:03;10.40;99.90
41344;DHT22;27089;50.022;7.604;2022-11-15T00:41:31;10.40;99.90
41344;DHT22;27089;50.022;7.604;2022-11-15T00:43:58;10.40;99.90
41344;DHT22;27089;50.022;7.604;2022-11-15T00:46:25;10.40;99.90
41344;DHT22;27089;50.022;7.604;2022-11-15T00:48:52;10.40;99.90
41344;DHT22;27089;50.022;7.604;2022-11-15T00:51:20;10.40;99.90
41344;DHT22;27089;50.022;7.604;2022-11-15T00:53:47;10.50;99.90
41344;DHT22;27089;50.022;7.604;2022-11-15T00:56:14;10.50;99.90
41344;DHT22;27089;50.022;7.604;2022-11-15T00:58:41;10.50;99.90
41344;DHT22;27089;50.022;7.604;2022-11-15T01:01:09;10.50;99.90
41344;DHT22;27089;50.022;7.604;2022-11-15T01:03:37;10.60;99.90
41344;DHT22;27089;50.022;7.604;2022-11-15T01:06:05;10.60;99.90
41344;DHT22;27089;50.022;7.604;2022-11-15T01:08:34;10.70;99.90
41344;DHT22;27089;50.022;7.604;2022-11-15T01:11:02;10.70;99.90
41344;DHT22;27089;50.022;7.604;2022-11-15T01:13:30;10.70;99.90
41344;DHT22;27089;50.022;7.604;2022-11-15T01:15:58;10.80;99.90
41344;DHT22;27089;50.022;7.604;2022-11-15T01:18:25;10.80;99.90
41344;DHT22;27089;50.022;7.604;2022-11-15T01:20:52;10.80;99.90
41344;DHT22;27089;50.022;7.604;2022-11-15T01:23:19;10.80;99.90
41344;DHT22;27089;50.022;7.604;2022-11-15T01:25:47;10.80;99.90
41344;DHT22;27089;50.022;7.604;2022-11-15T01:28:14;10.80;99.90
41344;DHT22;27089;50.022;7.604;2022-11-15T01:30:41;10.80;99.90
41344;DHT22;27089;50.022;7.604;2022-11-15T01:33:08;10.90;99.90
41344;DHT22;27089;50.022;7.604;2022-11-15T01:35:38;10.90;99.90
41344;DHT22;27089;50.022;7.604;2022-11-15T01:38:05;10.90;99.90
41344;DHT22;27089;50.022;7.604;2022-11-15T01:40:32;11.00;99.90
41344;DHT22;27089;50.022;7.604;2022-11-15T01:43:22;11.00;99.90
41344;DHT22;27089;50.022;7.604;2022-11-15T01:45:52;11.00;99.90
41344;DHT22;27089;50.022;7.604;2022-11-15T01:48:21;11.00;99.90
41344;DHT22;27089;50.022;7.604;2022-11-15T01:50:49;11.00;99.90
41344;DHT22;27089;50.022;7.604;2022-11-15T01:53:17;11.00;99.90
41344;DHT22;27089;50.022;7.604;2022-11-15T01:55:46;11.10;99.90
41344;DHT22;27089;50.022;7.604;2022-11-15T01:58:13;11.10;99.90
41344;DHT22;27089;50.022;7.604;2022-11-15T02:00:41;11.10;99.90
41344;DHT22;27089;50.022;7.604;2022-11-15T02:03:08;11.10;99.90
41344;DHT22;27089;50.022;7.604;2022-11-15T02:05:36;11.20;99.90
41344;DHT22;27089;50.022;7.604;2022-11-15T02:08:04;11.20;99.90
41344;DHT22;27089;50.022;7.604;2022-11-15T02:10:31;11.20;99.90
41344;DHT22;27089;50.022;7.604;2022-11-15T02:12:59;11.30;99.90
41344;DHT22;27089;50.022;7.604;2022-11-15T02:15:31;11.30;99.90
41344;DHT22;27089;50.022;7.604;2022-11-15T02:18:09;11.30;99.90
41344;DHT22;27089;50.022;7.604;2022-11-15T02:20:52;11.30;99.90
41344;DHT22;27089;50.022;7.604;2022-11-15T02:26:46;11.30;99.90
41344;DHT22;27089;50.022;7.604;2022-11-15T02:29:21;11.30;99.90
41344;DHT22;27089;50.022;7.604;2022-11-15T02:31:59;11.30;99.90
41344;DHT22;27089;50.022;7.604;2022-11-15T02:34:38;11.30;99.90
41344;DHT22;27089;50.022;7.604;2022-11-15T02:37:15;11.30;99.90
41344;DHT22;27089;50.022;7.604;2022-11-15T02:39:49;11.30;99.90
41344;DHT22;27089;50.022;7.604;2022-11-15T02:42:19;11.30;99.90
41344;DHT22;27089;50.022;7.604;2022-11-15T02:45:07;11.30;99.90
41344;DHT22;27089;50.022;7.604;2022-11-15T02:47:41;11.30;99.90
41344;DHT22;27089;50.022;7.604;2022-11-15T02:50:12;11.30;99.90
41344;DHT22;27089;50.022;7.604;2022-11-15T02:52:39;11.30;99.90
41344;DHT22;27089;50.022;7.604;2022-11-15T02:55:27;11.30;99.90
41344;DHT22;27089;50.022;7.604;2022-11-15T02:58:17;11.30;99.90
41344;DHT22;27089;50.022;7.604;2022-11-15T03:00:50;11.30;99.90
41344;DHT22;27089;50.022;7.604;2022-11-15T03:03:43;11.30;99.90
41344;DHT22;27089;50.022;7.604;2022-11-15T03:06:23;11.30;99.90
41344;DHT22;27089;50.022;7.604;2022-11-15T03:09:00;11.30;99.90
41344;DHT22;27089;50.022;7.604;2022-11-15T03:11:31;11.30;99.90
41344;DHT22;27089;50.022;7.604;2022-11-15T03:14:02;11.20;99.90
41344;DHT22;27089;50.022;7.604;2022-11-15T03:16:37;11.20;99.90
41344;DHT22;27089;50.022;7.604;2022-11-15T03:19:13;11.10;99.90
41344;DHT22;27089;50.022;7.604;2022-11-15T03:21:41;11.10;99.90
41344;DHT22;27089;50.022;7.604;2022-11-15T03:24:08;11.00;99.90
41344;DHT22;27089;50.022;7.604;2022-11-15T03:26:38;11.00;99.90
41344;DHT22;27089;50.022;7.604;2022-11-15T03:29:11;11.00;99.90
41344;DHT22;27089;50.022;7.604;2022-11-15T03:31:43;10.90;99.90
41344;DHT22;27089;50.022;7.604;2022-11-15T03:34:20;10.90;99.90
41344;DHT22;27089;50.022;7.604;2022-11-15T03:36:51;10.90;99.90
41344;DHT22;27089;50.022;7.604;2022-11-15T03:39:19;10.90;99.90
41344;DHT22;27089;50.022;7.604;2022-11-15T03:41:49;10.90;99.90
41344;DHT22;27089;50.022;7.604;2022-11-15T03:44:25;10.90;99.90
41344;DHT22;27089;50.022;7.604;2022-11-15T03:47:00;10.90;99.90
41344;DHT22;27089;50.022;7.604;2022-11-15T03:49:33;10.90;99.90
41344;DHT22;27089;50.022;7.604;2022-11-15T03:52:02;10.90;99.90
41344;DHT22;27089;50.022;7.604;2022-11-15T03:54:29;10.90;99.90
41344;DHT22;27089;50.022;7.604;2022-11-15T03:56:57;10.90;99.90
41344;DHT22;27089;50.022;7.604;2022-11-15T03:59:24;10.90;99.90
41344;DHT22;27089;50.022;7.604;2022-11-15T04:01:50;10.90;99.90
41344;DHT22;27089;50.022;7.604;2022-11-15T04:04:17;10.80;99.90
41344;DHT22;27089;50.022;7.604;2022-11-15T04:06:46;10.80;99.90
41344;DHT22;27089;50.022;7.604;2022-11-15T04:09:13;10.70;99.90
41344;DHT22;27089;50.022;7.604;2022-11-15T04:11:39;10.70;99.90
41344;DHT22;27089;50.022;7.604;2022-11-15T04:14:06;10.60;99.90
41344;DHT22;27089;50.022;7.604;2022-11-15T04:16:33;10.50;99.90
41344;DHT22;27089;50.022;7.604;2022-11-15T04:19:00;10.50;99.90
41344;DHT22;27089;50.022;7.604;2022-11-15T04:21:46;10.50;99.90
41344;DHT22;27089;50.022;7.604;2022-11-15T04:24:30;10.50;99.90
41344;DHT22;27089;50.022;7.604;2022-11-15T04:26:57;10.60;99.90
41344;DHT22;27089;50.022;7.604;2022-11-15T04:29:24;10.60;99.90
41344;DHT22;27089;50.022;7.604;2022-11-15T04:32:04;10.70;99.90
41344;DHT22;27089;50.022;7.604;2022-11-15T04:34:32;10.70;99.90
41344;DHT22;27089;50.022;7.604;2022-11-15T04:37:01;10.70;99.90
41344;DHT22;27089;50.022;7.604;2022-11-15T04:39:42;10.70;99.90
41344;DHT22;27089;50.022;7.604;2022-11-15T04:42:10;10.80;99.90
41344;DHT22;27089;50.022;7.604;2022-11-15T04:44:37;10.70;99.90
41344;DHT22;27089;50.022;7.604;2022-11-15T04:47:04;10.70;99.90
41344;DHT22;27089;50.022;7.604;2022-11-15T04:49:31;10.60;99.90
41344;DHT22;27089;50.022;7.604;2022-11-15T04:51:58;10.50;99.90
41344;DHT22;27089;50.022;7.604;2022-11-15T04:54:27;10.40;99.90
41344;DHT22;27089;50.022;7.604;2022-11-15T04:56:54;10.40;99.90
41344;DHT22;27089;50.022;7.604;2022-11-15T04:59:20;10.30;99.90
41344;DHT22;27089;50.022;7.604;2022-11-15T05:01:47;10.30;99.90
41344;DHT22;27089;50.022;7.604;2022-11-15T05:04:14;10.30;99.90
41344;DHT22;27089;50.022;7.604;2022-11-15T05:06:48;10.30;99.90
41344;DHT22;27089;50.022;7.604;2022-11-15T05:09:16;10.30;99.90
41344;DHT22;27089;50.022;7.604;2022-11-15T05:11:44;10.30;99.90
41344;DHT22;27089;50.022;7.604;2022-11-15T05:14:12;10.30;99.90
41344;DHT22;27089;50.022;7.604;2022-11-15T05:16:39;10.30;99.90
41344;DHT22;27089;50.022;7.604;2022-11-15T05:19:06;10.30;99.90
41344;DHT22;27089;50.022;7.604;2022-11-15T05:21:34;10.30;99.90
41344;DHT22;27089;50.022;7.604;2022-11-15T05:24:01;10.40;99.90
41344;DHT22;27089;50.022;7.604;2022-11-15T05:26:28;10.30;99.90
41344;DHT22;27089;50.022;7.604;2022-11-15T05:28:58;10.40;99.90
41344;DHT22;27089;50.022;7.604;2022-11-15T05:31:26;10.40;99.90
41344;DHT22;27089;50.022;7.604;2022-11-15T05:33:54;10.40;99.90
41344;DHT22;27089;50.022;7.604;2022-11-15T05:36:27;10.40;99.90
41344;DHT22;27089;50.022;7.604;2022-11-15T05:38:55;10.40;99.90
41344;DHT22;27089;50.022;7.604;2022-11-15T05:41:27;10.50;99.90
41344;DHT22;27089;50.022;7.604;2022-11-15T05:43:59;10.50;99.90
41344;DHT22;27089;50.022;7.604;2022-11-15T05:46:28;10.50;99.90
41344;DHT22;27089;50.022;7.604;2022-11-15T05:48:55;10.60;99.90
41344;DHT22;27089;50.022;7.604;2022-11-15T05:51:23;10.50;99.90
41344;DHT22;27089;50.022;7.604;2022-11-15T05:53:52;10.60;99.90
41344;DHT22;27089;50.022;7.604;2022-11-15T05:56:19;10.60;99.90
41344;DHT22;27089;50.022;7.604;2022-11-15T05:58:46;10.60;99.90
41344;DHT22;27089;50.022;7.604;2022-11-15T06:01:15;10.70;99.90
41344;DHT22;27089;50.022;7.604;2022-11-15T06:03:42;10.70;99.90
41344;DHT22;27089;50.022;7.604;2022-11-15T06:06:08;10.70;99.90
41344;DHT22;27089;50.022;7.604;2022-11-15T06:08:35;10.70;99.90
41344;DHT22;27089;50.022;7.604;2022-11-15T06:11:06;10.70;99.90
41344;DHT22;27089;50.022;7.604;2022-11-15T06:13:33;10.70;99.90
41344;DHT22;27089;50.022;7.604;2022-11-15T06:16:00;10.80;99.90
41344;DHT22;27089;50.022;7.604;2022-11-15T06:18:31;10.80;99.90
41344;DHT22;27089;50.022;7.604;2022-11-15T06:21:00;10.80;99.90
41344;DHT22;27089;50.022;7.604;2022-11-15T06:23:27;10.80;99.90
41344;DHT22;27089;50.022;7.604;2022-11-15T06:25:57;10.80;99.90
41344;DHT22;27089;50.022;7.604;2022-11-15T06:28:24;10.80;99.90
41344;DHT22;27089;50.022;7.604;2022-11-15T06:30:51;10.80;99.90
41344;DHT22;27089;50.022;7.604;2022-11-15T06:33:18;10.80;99.90
41344;DHT22;27089;50.022;7.604;2022-11-15T06:35:47;10.80;99.90
41344;DHT22;27089;50.022;7.604;2022-11-15T06:38:14;10.80;99.90
41344;DHT22;27089;50.022;7.604;2022-11-15T06:40:41;10.80;99.90
41344;DHT22;27089;50.022;7.604;2022-11-15T06:43:08;10.80;99.90
41344;DHT22;27089;50.022;7.604;2022-11-15T06:45:35;10.80;99.90
41344;DHT22;27089;50.022;7.604;2022-11-15T06:48:01;10.80;99.90
41344;DHT22;27089;50.022;7.604;2022-11-15T06:50:28;10.80;99.90
41344;DHT22;27089;50.022;7.604;2022-11-15T06:53:00;10.80;99.90
41344;DHT22;27089;50.022;7.604;2022-11-15T06:55:27;10.80;99.90
41344;DHT22;27089;50.022;7.604;2022-11-15T06:57:54;10.80;99.90
41344;DHT22;27089;50.022;7.604;2022-11-15T07:00:21;10.80;99.90
41344;DHT22;27089;50.022;7.604;2022-11-15T07:02:49;10.80;99.90
41344;DHT22;27089;50.022;7.604;2022-11-15T07:05:16;10.90;99.90
41344;DHT22;27089;50.022;7.604;2022-11-15T07:07:43;10.90;99.90
41344;DHT22;27089;50.022;7.604;2022-11-15T07:10:11;10.90;99.90
41344;DHT22;27089;50.022;7.604;2022-11-15T07:12:38;10.90;99.90
41344;DHT22;27089;50.022;7.604;2022-11-15T07:15:06;10.90;99.90
41344;DHT22;27089;50.022;7.604;2022-11-15T07:17:33;10.90;99.90
41344;DHT22;27089;50.022;7.604;2022-11-15T07:20:00;10.90;99.90
41344;DHT22;27089;50.022;7.604;2022-11-15T07:22:27;11.00;99.90
41344;DHT22;27089;50.022;7.604;2022-11-15T07:24:54;11.00;99.90
41344;DHT22;27089;50.022;7.604;2022-11-15T07:27:22;11.00;99.90
41344;DHT22;27089;50.022;7.604;2022-11-15T07:29:49;11.00;99.90
41344;DHT22;27089;50.022;7.604;2022-11-15T07:32:16;11.00;99.90
41344;DHT22;27089;50.022;7.604;2022-11-15T07:34:43;11.00;99.90
41344;DHT22;27089;50.022;7.604;2022-11-15T07:37:11;11.00;99.90
41344;DHT22;27089;50.022;7.604;2022-11-15T07:39:38;11.00;99.90
41344;DHT22;27089;50.022;7.604;2022-11-15T07:42:05;11.00;99.90
41344;DHT22;27089;50.022;7.604;2022-11-15T07:44:51;11.00;99.90
41344;DHT22;27089;50.022;7.604;2022-11-15T07:47:18;11.00;99.90
41344;DHT22;27089;50.022;7.604;2022-11-15T07:49:46;11.10;99.90
41344;DHT22;27089;50.022;7.604;2022-11-15T07:52:13;11.20;99.90
41344;DHT22;27089;50.022;7.604;2022-11-15T07:54:40;11.30;99.90
41344;DHT22;27089;50.022;7.604;2022-11-15T07:57:07;11.40;99.90
41344;DHT22;27089;50.022;7.604;2022-11-15T07:59:35;11.60;99.90
41344;DHT22;27089;50.022;7.604;2022-11-15T08:02:03;11.70;99.90
41344;DHT22;27089;50.022;7.604;2022-11-15T08:04:30;11.90;99.90
41344;DHT22;27089;50.022;7.604;2022-11-15T08:06:58;12.00;99.90
41344;DHT22;27089;50.022;7.604;2022-11-15T08:09:25;12.10;99.90
41344;DHT22;27089;50.022;7.604;2022-11-15T08:11:52;12.20;99.90
41344;DHT22;27089;50.022;7.604;2022-11-15T08:14:19;12.20;99.90
41344;DHT22;27089;50.022;7.604;2022-11-15T08:16:47;12.40;99.90
41344;DHT22;27089;50.022;7.604;2022-11-15T08:19:16;12.40;99.90
41344;DHT22;27089;50.022;7.604;2022-11-15T08:21:43;12.40;99.90
41344;DHT22;27089;50.022;7.604;2022-11-15T08:24:10;12.40;99.90
41344;DHT22;27089;50.022;7.604;2022-11-15T08:26:37;12.30;99.90
41344;DHT22;27089;50.022;7.604;2022-11-15T08:29:05;12.20;99.90
41344;DHT22;27089;50.022;7.604;2022-11-15T08:31:33;12.20;99.90
41344;DHT22;27089;50.022;7.604;2022-11-15T08:34:00;12.10;99.90
41344;DHT22;27089;50.022;7.604;2022-11-15T08:36:29;12.10;99.90
41344;DHT22;27089;50.022;7.604;2022-11-15T08:38:56;12.10;99.90
41344;DHT22;27089;50.022;7.604;2022-11-15T08:41:25;12.10;99.90
41344;DHT22;27089;50.022;7.604;2022-11-15T08:43:53;12.10;99.90
41344;DHT22;27089;50.022;7.604;2022-11-15T08:46:20;12.10;99.90
41344;DHT22;27089;50.022;7.604;2022-11-15T08:48:47;12.10;99.90
41344;DHT22;27089;50.022;7.604;2022-11-15T08:51:14;12.10;99.90
41344;DHT22;27089;50.022;7.604;2022-11-15T08:53:43;12.00;99.90
41344;DHT22;27089;50.022;7.604;2022-11-15T08:56:11;12.10;99.90
41344;DHT22;27089;50.022;7.604;2022-11-15T08:58:38;12.10;99.90
41344;DHT22;27089;50.022;7.604;2022-11-15T09:01:06;12.20;99.90
41344;DHT22;27089;50.022;7.604;2022-11-15T09:03:33;12.20;99.90
41344;DHT22;27089;50.022;7.604;2022-11-15T09:06:00;12.30;99.90
41344;DHT22;27089;50.022;7.604;2022-11-15T09:08:30;12.50;99.90
41344;DHT22;27089;50.022;7.604;2022-11-15T09:11:02;12.60;99.90
41344;DHT22;27089;50.022;7.604;2022-11-15T09:13:29;12.70;99.90
41344;DHT22;27089;50.022;7.604;2022-11-15T09:15:57;12.80;99.90
41344;DHT22;27089;50.022;7.604;2022-11-15T09:18:25;12.80;99.90
41344;DHT22;27089;50.022;7.604;2022-11-15T09:20:55;12.80;99.90
41344;DHT22;27089;50.022;7.604;2022-11-15T09:23:22;12.80;99.90
41344;DHT22;27089;50.022;7.604;2022-11-15T09:25:49;12.80;99.90
41344;DHT22;27089;50.022;7.604;2022-11-15T09:28:18;12.80;99.90
41344;DHT22;27089;50.022;7.604;2022-11-15T09:30:45;12.80;99.90
41344;DHT22;27089;50.022;7.604;2022-11-15T09:33:12;12.80;99.90
41344;DHT22;27089;50.022;7.604;2022-11-15T09:35:39;12.70;99.90
41344;DHT22;27089;50.022;7.604;2022-11-15T09:38:07;12.60;99.90
41344;DHT22;27089;50.022;7.604;2022-11-15T09:40:36;12.60;99.90
41344;DHT22;27089;50.022;7.604;2022-11-15T09:43:11;12.50;99.90
41344;DHT22;27089;50.022;7.604;2022-11-15T09:45:52;12.40;99.90
41344;DHT22;27089;50.022;7.604;2022-11-15T09:48:46;12.30;99.90
41344;DHT22;27089;50.022;7.604;2022-11-15T09:51:23;12.30;99.90
41344;DHT22;27089;50.022;7.604;2022-11-15T09:53:58;12.30;99.90
41344;DHT22;27089;50.022;7.604;2022-11-15T09:56:29;12.30;99.90
41344;DHT22;27089;50.022;7.604;2022-11-15T09:59:04;12.30;99.90
41344;DHT22;27089;50.022;7.604;2022-11-15T10:01:47;12.40;99.90
41344;DHT22;27089;50.022;7.604;2022-11-15T10:04:17;12.40;99.90
41344;DHT22;27089;50.022;7.604;2022-11-15T10:06:51;12.40;99.90
41344;DHT22;27089;50.022;7.604;2022-11-15T10:09:25;12.40;99.90
41344;DHT22;27089;50.022;7.604;2022-11-15T10:11:53;12.50;99.90
41344;DHT22;27089;50.022;7.604;2022-11-15T10:14:22;12.60;99.90
41344;DHT22;27089;50.022;7.604;2022-11-15T10:17:08;12.70;99.90
41344;DHT22;27089;50.022;7.604;2022-11-15T10:19:44;12.80;99.90
41344;DHT22;27089;50.022;7.604;2022-11-15T10:22:21;12.90;99.90
41344;DHT22;27089;50.022;7.604;2022-11-15T10:24:58;13.00;99.90
41344;DHT22;27089;50.022;7.604;2022-11-15T10:27:27;13.10;99.90
41344;DHT22;27089;50.022;7.604;2022-11-15T10:29:54;13.20;99.90
41344;DHT22;27089;50.022;7.604;2022-11-15T10:32:22;13.30;99.90
41344;DHT22;27089;50.022;7.604;2022-11-15T10:34:49;13.30;99.90
41344;DHT22;27089;50.022;7.604;2022-11-15T10:37:28;13.30;99.90
41344;DHT22;27089;50.022;7.604;2022-11-15T10:40:06;13.30;99.90
41344;DHT22;27089;50.022;7.604;2022-11-15T10:42:41;13.40;99.90
41344;DHT22;27089;50.022;7.604;2022-11-15T10:45:23;13.50;99.90
41344;DHT22;27089;50.022;7.604;2022-11-15T10:47:52;13.60;99.90
41344;DHT22;27089;50.022;7.604;2022-11-15T10:50:30;13.70;99.90
41344;DHT22;27089;50.022;7.604;2022-11-15T10:52:58;13.80;99.90
41344;DHT22;27089;50.022;7.604;2022-11-15T10:55:30;13.80;99.90
41344;DHT22;27089;50.022;7.604;2022-11-15T10:58:02;13.80;99.90
41344;DHT22;27089;50.022;7.604;2022-11-15T11:00:33;13.90;99.90
41344;DHT22;27089;50.022;7.604;2022-11-15T11:03:04;13.90;99.90
41344;DHT22;27089;50.022;7.604;2022-11-15T11:05:35;13.80;99.90
41344;DHT22;27089;50.022;7.604;2022-11-15T11:08:05;13.70;99.90
41344;DHT22;27089;50.022;7.604;2022-11-15T11:10:34;13.60;99.90
41344;DHT22;27089;50.022;7.604;2022-11-15T11:13:14;13.60;99.90
41344;DHT22;27089;50.022;7.604;2022-11-15T11:15:44;13.70;99.90
41344;DHT22;27089;50.022;7.604;2022-11-15T11:18:21;13.80;99.90
41344;DHT22;27089;50.022;7.604;2022-11-15T11:20:56;13.90;99.90
41344;DHT22;27089;50.022;7.604;2022-11-15T11:23:44;13.90;99.90
41344;DHT22;27089;50.022;7.604;2022-11-15T11:26:27;14.00;99.90
41344;DHT22;27089;50.022;7.604;2022-11-15T11:29:02;13.90;99.90
41344;DHT22;27089;50.022;7.604;2022-11-15T11:31:37;13.90;99.90
41344;DHT22;27089;50.022;7.604;2022-11-15T11:34:15;13.90;99.90
41344;DHT22;27089;50.022;7.604;2022-11-15T11:36:50;13.80;99.90
41344;DHT22;27089;50.022;7.604;2022-11-15T11:39:24;13.80;99.90
41344;DHT22;27089;50.022;7.604;2022-11-15T11:41:59;13.90;99.90
41344;DHT22;27089;50.022;7.604;2022-11-15T11:44:36;13.90;99.90
41344;DHT22;27089;50.022;7.604;2022-11-15T11:47:09;13.90;99.90
41344;DHT22;27089;50.022;7.604;2022-11-15T11:49:43;14.00;99.90
41344;DHT22;27089;50.022;7.604;2022-11-15T11:52:16;14.00;99.90
41344;DHT22;27089;50.022;7.604;2022-11-15T11:54:58;13.90;99.90
41344;DHT22;27089;50.022;7.604;2022-11-15T11:57:33;14.00;99.90
41344;DHT22;27089;50.022;7.604;2022-11-15T12:00:04;14.00;99.90
41344;DHT22;27089;50.022;7.604;2022-11-15T12:02:42;14.00;99.90
41344;DHT22;27089;50.022;7.604;2022-11-15T12:05:18;14.00;99.90
41344;DHT22;27089;50.022;7.604;2022-11-15T12:07:47;14.00;99.90
41344;DHT22;27089;50.022;7.604;2022-11-15T12:10:21;14.00;99.90
41344;DHT22;27089;50.022;7.604;2022-11-15T12:12:54;13.90;99.90
41344;DHT22;27089;50.022;7.604;2022-11-15T12:15:25;13.90;99.90
41344;DHT22;27089;50.022;7.604;2022-11-15T12:17:55;13.90;99.90
41344;DHT22;27089;50.022;7.604;2022-11-15T12:20:27;13.90;99.90
41344;DHT22;27089;50.022;7.604;2022-11-15T12:22:59;13.90;99.90
41344;DHT22;27089;50.022;7.604;2022-11-15T12:25:33;13.90;99.90
41344;DHT22;27089;50.022;7.604;2022-11-15T12:28:07;13.90;99.90
41344;DHT22;27089;50.022;7.604;2022-11-15T12:30:43;13.90;99.90
41344;DHT22;27089;50.022;7.604;2022-11-15T12:33:30;13.70;99.90
41344;DHT22;27089;50.022;7.604;2022-11-15T12:36:00;13.70;99.90
41344;DHT22;27089;50.022;7.604;2022-11-15T12:38:53;13.70;99.90
41344;DHT22;27089;50.022;7.604;2022-11-15T12:41:21;13.70;99.90
41344;DHT22;27089;50.022;7.604;2022-11-15T12:43:49;13.80;99.90
41344;DHT22;27089;50.022;7.604;2022-11-15T12:49:09;13.80;99.90
41344;DHT22;27089;50.022;7.604;2022-11-15T12:52:06;13.90;99.90
41344;DHT22;27089;50.022;7.604;2022-11-15T12:54:58;14.00;99.90
41344;DHT22;27089;50.022;7.604;2022-11-15T12:57:34;14.00;99.90
41344;DHT22;27089;50.022;7.604;2022-11-15T13:02:47;14.00;99.90
41344;DHT22;27089;50.022;7.604;2022-11-15T13:06:02;14.00;99.90
41344;DHT22;27089;50.022;7.604;2022-11-15T13:08:48;14.00;99.90
41344;DHT22;27089;50.022;7.604;2022-11-15T13:11:43;14.20;99.90
41344;DHT22;27089;50.022;7.604;2022-11-15T13:14:45;14.20;99.90
41344;DHT22;27089;50.022;7.604;2022-11-15T13:17:39;14.20;99.90
41344;DHT22;27089;50.022;7.604;2022-11-15T13:20:28;14.10;99.90
41344;DHT22;27089;50.022;7.604;2022-11-15T13:23:02;13.80;99.90
41344;DHT22;27089;50.022;7.604;2022-11-15T13:26:06;13.70;99.90
41344;DHT22;27089;50.022;7.604;2022-11-15T13:28:38;13.70;99.90
41344;DHT22;27089;50.022;7.604;2022-11-15T13:31:25;13.50;99.90
41344;DHT22;27089;50.022;7.604;2022-11-15T13:33:53;13.30;99.90
41344;DHT22;27089;50.022;7.604;2022-11-15T13:36:23;13.30;99.90
41344;DHT22;27089;50.022;7.604;2022-11-15T13:38:56;13.10;99.90
41344;DHT22;27089;50.022;7.604;2022-11-15T13:41:27;13.10;99.90
41344;DHT22;27089;50.022;7.604;2022-11-15T13:43:55;12.90;99.90
41344;DHT22;27089;50.022;7.604;2022-11-15T13:46:24;12.80;99.90
41344;DHT22;27089;50.022;7.604;2022-11-15T13:48:54;12.80;99.90
41344;DHT22;27089;50.022;7.604;2022-11-15T13:51:26;12.80;99.90
41344;DHT22;27089;50.022;7.604;2022-11-15T13:53:57;12.80;99.90
41344;DHT22;27089;50.022;7.604;2022-11-15T13:56:27;12.70;99.90
41344;DHT22;27089;50.022;7.604;2022-11-15T13:58:55;12.60;99.90
41344;DHT22;27089;50.022;7.604;2022-11-15T14:01:22;12.60;99.90
41344;DHT22;27089;50.022;7.604;2022-11-15T14:03:53;12.50;99.90
41344;DHT22;27089;50.022;7.604;2022-11-15T14:06:22;12.50;99.90
41344;DHT22;27089;50.022;7.604;2022-11-15T14:09:29;12.50;99.90
41344;DHT22;27089;50.022;7.604;2022-11-15T14:12:00;12.50;99.90
41344;DHT22;27089;50.022;7.604;2022-11-15T14:14:28;12.50;99.90
41344;DHT22;27089;50.022;7.604;2022-11-15T14:16:57;12.50;99.90
41344;DHT22;27089;50.022;7.604;2022-11-15T14:19:36;12.40;99.90
41344;DHT22;27089;50.022;7.604;2022-11-15T14:22:15;12.40;99.90
41344;DHT22;27089;50.022;7.604;2022-11-15T14:24:44;12.40;99.90
41344;DHT22;27089;50.022;7.604;2022-11-15T14:27:21;12.40;99.90
41344;DHT22;27089;50.022;7.604;2022-11-15T14:29:49;12.30;99.90
41344;DHT22;27089;50.022;7.604;2022-11-15T14:32:17;12.30;99.90
41344;DHT22;27089;50.022;7.604;2022-11-15T14:34:45;12.30;99.90
41344;DHT22;27089;50.022;7.604;2022-11-15T14:37:23;12.40;99.90
41344;DHT22;27089;50.022;7.604;2022-11-15T14:39:51;12.40;99.90
41344;DHT22;27089;50.022;7.604;2022-11-15T14:42:21;12.40;99.90
41344;DHT22;27089;50.022;7.604;2022-11-15T14:44:48;12.50;99.90
41344;DHT22;27089;50.022;7.604;2022-11-15T14:47:15;12.50;99.90
41344;DHT22;27089;50.022;7.604;2022-11-15T14:49:42;12.40;99.90
41344;DHT22;27089;50.022;7.604;2022-11-15T14:52:24;12.30;99.90
41344;DHT22;27089;50.022;7.604;2022-11-15T14:54:53;12.20;99.90
41344;DHT22;27089;50.022;7.604;2022-11-15T14:57:21;12.10;99.90
41344;DHT22;27089;50.022;7.604;2022-11-15T14:59:48;12.10;99.90
41344;DHT22;27089;50.022;7.604;2022-11-15T15:02:18;11.90;99.90
41344;DHT22;27089;50.022;7.604;2022-11-15T15:04:45;11.90;99.90
41344;DHT22;27089;50.022;7.604;2022-11-15T15:07:13;11.70;99.90
41344;DHT22;27089;50.022;7.604;2022-11-15T15:09:41;11.60;99.90
41344;DHT22;27089;50.022;7.604;2022-11-15T15:12:16;11.50;99.90
41344;DHT22;27089;50.022;7.604;2022-11-15T15:14:46;11.50;99.90
41344;DHT22;27089;50.022;7.604;2022-11-15T15:17:13;11.40;99.90
41344;DHT22;27089;50.022;7.604;2022-11-15T15:19:40;11.30;99.90
41344;DHT22;27089;50.022;7.604;2022-11-15T15:22:13;11.20;99.90
41344;DHT22;27089;50.022;7.604;2022-11-15T15:24:41;11.20;99.90
41344;DHT22;27089;50.022;7.604;2022-11-15T15:27:08;11.10;99.90
41344;DHT22;27089;50.022;7.604;2022-11-15T15:29:35;11.10;99.90
41344;DHT22;27089;50.022;7.604;2022-11-15T15:32:03;11.10;99.90
41344;DHT22;27089;50.022;7.604;2022-11-15T15:34:31;11.10;99.90
41344;DHT22;27089;50.022;7.604;2022-11-15T15:37:19;11.10;99.90
41344;DHT22;27089;50.022;7.604;2022-11-15T15:39:48;11.10;99.90
41344;DHT22;27089;50.022;7.604;2022-11-15T15:42:15;11.10;99.90
41344;DHT22;27089;50.022;7.604;2022-11-15T15:44:42;11.10;99.90
41344;DHT22;27089;50.022;7.604;2022-11-15T15:47:12;11.10;99.90
41344;DHT22;27089;50.022;7.604;2022-11-15T15:49:39;11.00;99.90
41344;DHT22;27089;50.022;7.604;2022-11-15T15:52:06;11.00;99.90
41344;DHT22;27089;50.022;7.604;2022-11-15T15:54:34;11.00;99.90
41344;DHT22;27089;50.022;7.604;2022-11-15T15:57:01;11.00;99.90
41344;DHT22;27089;50.022;7.604;2022-11-15T15:59:28;11.00;99.90
41344;DHT22;27089;50.022;7.604;2022-11-15T16:01:55;11.00;99.90
41344;DHT22;27089;50.022;7.604;2022-11-15T16:04:24;11.00;99.90